Aérodrome :
LOGIN :

S'inscrire | Disclaimer

   EN    FR    IT 

 










Légende :    VFR   VFR Marginal   IFR   IFR Intensif   IFR Très Intensif
Visi : 
Plafond : 
>= 8 km
>= 3000ft
5 à 8 km
1000 à 3000 ft
1500m à 5 km
500 à 1000 ft
800 à 1500m
200 à 500 ft
< 800m
< 200 ft
Symboles :   Orages  Brouillard  Fortes neiges  Fortes précipitations  Vent > 20 kt
SIGMETs :   Divers  Orages  Givrage  Turbulence  Onde Orograph.  Cendres Volcan.







- Altitude de l'aérodrome : 789 ft
- Code IATA : BZO


LIPB - Bolzano

DERNIER METAR :
  • 251550Z 35011G21KT 9999 FEW100 19/M06 Q1008

METARs EXPIRÉS :
  • 251450Z 35017G29KT 9999 FEW110 19/M10 Q1007
  • 251350Z 32014G25KT 9999 FEW090 21/M06 Q1007

TAF AMD TAF LIPB
Valide du 25 à 14h jusqu'au 26 à 12h UTC


251405Z 2514/2612 34018G32KT 9999 SCT070
BECMG 2600/2603 35012KT
BECMG 2610/2612 35016G28KT
Pas de NOTAMs connus pour ce terrain.
1 SIGMET publié pour la FIR Milano (LIMM) :
 
Orages noyés dans la masse
LIMM SIGMET 1 VALID 251630/251800 LIIP
LIMM MILANO FIR EMBD TS OBS WI N4641 E01222 - N4632 E01336 - N4604 E01311 - N4600 E01209 - N4641 E01222 TOP FL210 MOV WSW NC=



MET'MAP, la Météo Aéronautique d'un coup d'oeil ! - Copyright ORBIFLY Décembre 2007 - Disclaimer

ORBIFLY MET'MAP TEAM :

Programmation & Développement : Alexandra Zaïnal
Conception & Développement : Baudouin d'Aumeries
Co-Programmation & Développement : Marc-Olivier Méhu
Soutien technique & logistique : Manuel Goepfert

Contact : metmap@orbifly.com




SOURCES & CREDITS :

   NOAA